sensor_id;sensor_type;location;lat;lon;timestamp;temperature;humidity
24468;DHT22;12634;50.852;5.676;2023-04-15T00:00:11;5.40;99.90
24468;DHT22;12634;50.852;5.676;2023-04-15T00:02:38;5.30;99.90
24468;DHT22;12634;50.852;5.676;2023-04-15T00:05:05;5.20;99.90
24468;DHT22;12634;50.852;5.676;2023-04-15T00:07:33;5.30;99.90
24468;DHT22;12634;50.852;5.676;2023-04-15T00:10:00;5.10;99.90
24468;DHT22;12634;50.852;5.676;2023-04-15T00:12:29;4.90;99.90
24468;DHT22;12634;50.852;5.676;2023-04-15T00:14:56;4.80;99.90
24468;DHT22;12634;50.852;5.676;2023-04-15T00:17:25;4.80;99.90
24468;DHT22;12634;50.852;5.676;2023-04-15T00:19:52;4.60;99.90
24468;DHT22;12634;50.852;5.676;2023-04-15T00:22:19;4.80;99.90
24468;DHT22;12634;50.852;5.676;2023-04-15T00:24:48;4.60;99.90
24468;DHT22;12634;50.852;5.676;2023-04-15T00:27:15;4.60;99.90
24468;DHT22;12634;50.852;5.676;2023-04-15T00:29:42;4.80;99.90
24468;DHT22;12634;50.852;5.676;2023-04-15T00:32:09;4.70;99.90
24468;DHT22;12634;50.852;5.676;2023-04-15T00:34:38;4.60;99.90
24468;DHT22;12634;50.852;5.676;2023-04-15T00:37:05;4.50;99.90
24468;DHT22;12634;50.852;5.676;2023-04-15T00:39:32;4.50;99.90
24468;DHT22;12634;50.852;5.676;2023-04-15T00:42:00;4.50;99.90
24468;DHT22;12634;50.852;5.676;2023-04-15T00:44:27;4.50;99.90
24468;DHT22;12634;50.852;5.676;2023-04-15T00:46:54;4.70;99.90
24468;DHT22;12634;50.852;5.676;2023-04-15T00:49:23;4.80;99.90
24468;DHT22;12634;50.852;5.676;2023-04-15T00:51:53;4.80;99.90
24468;DHT22;12634;50.852;5.676;2023-04-15T00:54:20;4.80;99.90
24468;DHT22;12634;50.852;5.676;2023-04-15T00:56:48;4.90;99.90
24468;DHT22;12634;50.852;5.676;2023-04-15T00:59:16;5.00;99.90
24468;DHT22;12634;50.852;5.676;2023-04-15T01:01:44;4.80;99.90
24468;DHT22;12634;50.852;5.676;2023-04-15T01:04:12;4.70;99.90
24468;DHT22;12634;50.852;5.676;2023-04-15T01:06:39;4.70;99.90
24468;DHT22;12634;50.852;5.676;2023-04-15T01:09:08;4.80;99.90
24468;DHT22;12634;50.852;5.676;2023-04-15T01:11:35;4.80;99.90
24468;DHT22;12634;50.852;5.676;2023-04-15T01:14:03;5.00;99.90
24468;DHT22;12634;50.852;5.676;2023-04-15T01:16:30;5.00;99.90
24468;DHT22;12634;50.852;5.676;2023-04-15T01:18:57;5.10;99.90
24468;DHT22;12634;50.852;5.676;2023-04-15T01:21:25;5.10;99.90
24468;DHT22;12634;50.852;5.676;2023-04-15T01:23:54;5.20;99.90
24468;DHT22;12634;50.852;5.676;2023-04-15T01:26:24;5.30;99.90
24468;DHT22;12634;50.852;5.676;2023-04-15T01:28:52;5.30;99.90
24468;DHT22;12634;50.852;5.676;2023-04-15T01:31:19;5.40;99.90
24468;DHT22;12634;50.852;5.676;2023-04-15T01:33:46;5.40;99.90
24468;DHT22;12634;50.852;5.676;2023-04-15T01:36:13;5.70;99.90
24468;DHT22;12634;50.852;5.676;2023-04-15T01:38:41;5.90;99.90
24468;DHT22;12634;50.852;5.676;2023-04-15T01:41:08;6.30;99.90
24468;DHT22;12634;50.852;5.676;2023-04-15T01:43:36;6.50;99.90
24468;DHT22;12634;50.852;5.676;2023-04-15T01:46:04;6.50;99.90
24468;DHT22;12634;50.852;5.676;2023-04-15T01:48:31;6.70;99.90
24468;DHT22;12634;50.852;5.676;2023-04-15T01:50:59;6.60;99.90
24468;DHT22;12634;50.852;5.676;2023-04-15T01:53:26;6.60;99.90
24468;DHT22;12634;50.852;5.676;2023-04-15T01:55:54;6.40;99.90
24468;DHT22;12634;50.852;5.676;2023-04-15T01:58:21;6.50;99.90
24468;DHT22;12634;50.852;5.676;2023-04-15T02:00:50;6.40;99.90
24468;DHT22;12634;50.852;5.676;2023-04-15T02:03:17;6.50;99.90
24468;DHT22;12634;50.852;5.676;2023-04-15T02:05:44;6.50;99.90
24468;DHT22;12634;50.852;5.676;2023-04-15T02:08:11;6.50;99.90
24468;DHT22;12634;50.852;5.676;2023-04-15T02:10:38;6.50;99.90
24468;DHT22;12634;50.852;5.676;2023-04-15T02:13:05;6.40;99.90
24468;DHT22;12634;50.852;5.676;2023-04-15T02:15:33;6.40;99.90
24468;DHT22;12634;50.852;5.676;2023-04-15T02:18:01;6.30;99.90
24468;DHT22;12634;50.852;5.676;2023-04-15T02:20:29;6.30;99.90
24468;DHT22;12634;50.852;5.676;2023-04-15T02:22:56;6.20;99.90
24468;DHT22;12634;50.852;5.676;2023-04-15T02:25:24;6.40;99.90
24468;DHT22;12634;50.852;5.676;2023-04-15T02:27:51;6.30;99.90
24468;DHT22;12634;50.852;5.676;2023-04-15T02:30:18;6.40;99.90
24468;DHT22;12634;50.852;5.676;2023-04-15T02:32:46;6.50;99.90
24468;DHT22;12634;50.852;5.676;2023-04-15T02:35:14;6.40;99.90
24468;DHT22;12634;50.852;5.676;2023-04-15T02:37:43;6.40;99.90
24468;DHT22;12634;50.852;5.676;2023-04-15T02:40:11;6.30;99.90
24468;DHT22;12634;50.852;5.676;2023-04-15T02:42:38;6.30;99.90
24468;DHT22;12634;50.852;5.676;2023-04-15T02:45:06;6.30;99.90
24468;DHT22;12634;50.852;5.676;2023-04-15T02:47:34;6.20;99.90
24468;DHT22;12634;50.852;5.676;2023-04-15T02:50:02;6.30;99.90
24468;DHT22;12634;50.852;5.676;2023-04-15T02:52:31;6.20;99.90
24468;DHT22;12634;50.852;5.676;2023-04-15T02:54:58;6.20;99.90
24468;DHT22;12634;50.852;5.676;2023-04-15T02:57:27;6.20;99.90
24468;DHT22;12634;50.852;5.676;2023-04-15T02:59:54;6.10;99.90
24468;DHT22;12634;50.852;5.676;2023-04-15T03:02:21;6.00;99.90
24468;DHT22;12634;50.852;5.676;2023-04-15T03:04:49;6.10;99.90
24468;DHT22;12634;50.852;5.676;2023-04-15T03:07:17;6.10;99.90
24468;DHT22;12634;50.852;5.676;2023-04-15T03:09:45;6.20;99.90
24468;DHT22;12634;50.852;5.676;2023-04-15T03:12:12;6.20;99.90
24468;DHT22;12634;50.852;5.676;2023-04-15T03:14:40;6.20;99.90
24468;DHT22;12634;50.852;5.676;2023-04-15T03:17:07;6.20;99.90
24468;DHT22;12634;50.852;5.676;2023-04-15T03:19:34;6.10;99.90
24468;DHT22;12634;50.852;5.676;2023-04-15T03:22:01;6.20;99.90
24468;DHT22;12634;50.852;5.676;2023-04-15T03:24:28;6.30;99.90
24468;DHT22;12634;50.852;5.676;2023-04-15T03:26:57;6.30;99.90
24468;DHT22;12634;50.852;5.676;2023-04-15T03:29:24;6.20;99.90
24468;DHT22;12634;50.852;5.676;2023-04-15T03:31:51;6.20;99.90
24468;DHT22;12634;50.852;5.676;2023-04-15T03:34:19;6.30;99.90
24468;DHT22;12634;50.852;5.676;2023-04-15T03:36:46;6.20;99.90
24468;DHT22;12634;50.852;5.676;2023-04-15T03:39:13;6.20;99.90
24468;DHT22;12634;50.852;5.676;2023-04-15T03:41:40;6.20;99.90
24468;DHT22;12634;50.852;5.676;2023-04-15T03:44:09;6.10;99.90
24468;DHT22;12634;50.852;5.676;2023-04-15T03:46:36;6.10;99.90
24468;DHT22;12634;50.852;5.676;2023-04-15T03:49:06;6.10;99.90
24468;DHT22;12634;50.852;5.676;2023-04-15T03:51:33;6.10;99.90
24468;DHT22;12634;50.852;5.676;2023-04-15T03:54:01;6.00;99.90
24468;DHT22;12634;50.852;5.676;2023-04-15T03:56:28;6.00;99.90
24468;DHT22;12634;50.852;5.676;2023-04-15T03:58:55;6.10;99.90
24468;DHT22;12634;50.852;5.676;2023-04-15T04:01:24;6.10;99.90
24468;DHT22;12634;50.852;5.676;2023-04-15T04:03:51;6.10;99.90
24468;DHT22;12634;50.852;5.676;2023-04-15T04:06:18;6.00;99.90
24468;DHT22;12634;50.852;5.676;2023-04-15T04:08:45;5.90;99.90
24468;DHT22;12634;50.852;5.676;2023-04-15T04:11:12;6.00;99.90
24468;DHT22;12634;50.852;5.676;2023-04-15T04:13:40;6.00;99.90
24468;DHT22;12634;50.852;5.676;2023-04-15T04:16:07;6.00;99.90
24468;DHT22;12634;50.852;5.676;2023-04-15T04:18:35;6.10;99.90
24468;DHT22;12634;50.852;5.676;2023-04-15T04:21:03;6.10;99.90
24468;DHT22;12634;50.852;5.676;2023-04-15T04:23:30;6.00;99.90
24468;DHT22;12634;50.852;5.676;2023-04-15T04:25:57;5.90;99.90
24468;DHT22;12634;50.852;5.676;2023-04-15T04:28:24;5.80;99.90
24468;DHT22;12634;50.852;5.676;2023-04-15T04:30:51;5.80;99.90
24468;DHT22;12634;50.852;5.676;2023-04-15T04:33:18;5.80;99.90
24468;DHT22;12634;50.852;5.676;2023-04-15T04:35:47;5.90;99.90
24468;DHT22;12634;50.852;5.676;2023-04-15T04:38:14;5.90;99.90
24468;DHT22;12634;50.852;5.676;2023-04-15T04:40:41;6.00;99.90
24468;DHT22;12634;50.852;5.676;2023-04-15T04:43:08;6.10;99.90
24468;DHT22;12634;50.852;5.676;2023-04-15T04:45:35;6.10;99.90
24468;DHT22;12634;50.852;5.676;2023-04-15T04:48:03;6.20;99.90
24468;DHT22;12634;50.852;5.676;2023-04-15T04:50:31;6.20;99.90
24468;DHT22;12634;50.852;5.676;2023-04-15T04:53:00;6.20;99.90
24468;DHT22;12634;50.852;5.676;2023-04-15T04:55:27;6.20;99.90
24468;DHT22;12634;50.852;5.676;2023-04-15T04:57:54;6.20;99.90
24468;DHT22;12634;50.852;5.676;2023-04-15T05:00:21;6.20;99.90
24468;DHT22;12634;50.852;5.676;2023-04-15T05:02:49;6.20;99.90
24468;DHT22;12634;50.852;5.676;2023-04-15T05:05:16;6.20;99.90
24468;DHT22;12634;50.852;5.676;2023-04-15T05:07:43;6.30;99.90
24468;DHT22;12634;50.852;5.676;2023-04-15T05:10:12;6.40;99.90
24468;DHT22;12634;50.852;5.676;2023-04-15T05:12:40;6.50;99.90
24468;DHT22;12634;50.852;5.676;2023-04-15T05:15:08;6.60;99.90
24468;DHT22;12634;50.852;5.676;2023-04-15T05:17:35;6.80;99.90
24468;DHT22;12634;50.852;5.676;2023-04-15T05:20:03;7.10;99.90
24468;DHT22;12634;50.852;5.676;2023-04-15T05:22:30;7.40;99.90
24468;DHT22;12634;50.852;5.676;2023-04-15T05:24:57;7.60;99.90
24468;DHT22;12634;50.852;5.676;2023-04-15T05:27:26;7.50;99.90
24468;DHT22;12634;50.852;5.676;2023-04-15T05:29:53;7.20;99.90
24468;DHT22;12634;50.852;5.676;2023-04-15T05:32:21;7.10;99.90
24468;DHT22;12634;50.852;5.676;2023-04-15T05:34:48;7.00;99.90
24468;DHT22;12634;50.852;5.676;2023-04-15T05:37:15;7.00;99.90
24468;DHT22;12634;50.852;5.676;2023-04-15T05:39:45;7.10;99.90
24468;DHT22;12634;50.852;5.676;2023-04-15T05:42:13;7.10;99.90
24468;DHT22;12634;50.852;5.676;2023-04-15T05:44:41;7.20;99.90
24468;DHT22;12634;50.852;5.676;2023-04-15T05:47:09;7.30;99.90
24468;DHT22;12634;50.852;5.676;2023-04-15T05:49:36;7.40;99.90
24468;DHT22;12634;50.852;5.676;2023-04-15T05:52:03;7.50;99.90
24468;DHT22;12634;50.852;5.676;2023-04-15T05:54:31;7.70;99.90
24468;DHT22;12634;50.852;5.676;2023-04-15T05:56:58;7.90;99.90
24468;DHT22;12634;50.852;5.676;2023-04-15T05:59:25;8.10;99.90
24468;DHT22;12634;50.852;5.676;2023-04-15T06:01:54;8.50;99.90
24468;DHT22;12634;50.852;5.676;2023-04-15T06:04:21;8.80;99.90
24468;DHT22;12634;50.852;5.676;2023-04-15T06:06:48;9.00;99.90
24468;DHT22;12634;50.852;5.676;2023-04-15T06:09:16;9.00;99.90
24468;DHT22;12634;50.852;5.676;2023-04-15T06:11:43;9.40;99.90
24468;DHT22;12634;50.852;5.676;2023-04-15T06:14:10;9.30;99.90
24468;DHT22;12634;50.852;5.676;2023-04-15T06:16:37;9.30;99.90
24468;DHT22;12634;50.852;5.676;2023-04-15T06:19:05;9.50;99.90
24468;DHT22;12634;50.852;5.676;2023-04-15T06:21:33;9.60;99.90
24468;DHT22;12634;50.852;5.676;2023-04-15T06:24:00;9.70;99.90
24468;DHT22;12634;50.852;5.676;2023-04-15T06:26:27;9.90;99.90
24468;DHT22;12634;50.852;5.676;2023-04-15T06:28:54;10.20;99.90
24468;DHT22;12634;50.852;5.676;2023-04-15T06:31:21;10.70;99.90
24468;DHT22;12634;50.852;5.676;2023-04-15T06:33:48;10.70;99.90
24468;DHT22;12634;50.852;5.676;2023-04-15T06:36:17;10.90;99.90
24468;DHT22;12634;50.852;5.676;2023-04-15T06:38:44;11.20;99.90
24468;DHT22;12634;50.852;5.676;2023-04-15T06:41:12;11.70;99.90
24468;DHT22;12634;50.852;5.676;2023-04-15T06:43:40;12.20;99.90
24468;DHT22;12634;50.852;5.676;2023-04-15T06:46:08;12.20;99.90
24468;DHT22;12634;50.852;5.676;2023-04-15T06:48:35;12.50;99.90
24468;DHT22;12634;50.852;5.676;2023-04-15T06:51:03;11.90;99.90
24468;DHT22;12634;50.852;5.676;2023-04-15T06:53:31;11.50;99.90
24468;DHT22;12634;50.852;5.676;2023-04-15T06:56:00;11.30;99.90
24468;DHT22;12634;50.852;5.676;2023-04-15T06:58:27;11.20;99.90
24468;DHT22;12634;50.852;5.676;2023-04-15T07:00:55;11.10;99.90
24468;DHT22;12634;50.852;5.676;2023-04-15T07:03:22;11.20;99.90
24468;DHT22;12634;50.852;5.676;2023-04-15T07:05:49;11.40;99.90
24468;DHT22;12634;50.852;5.676;2023-04-15T07:08:16;11.70;99.90
24468;DHT22;12634;50.852;5.676;2023-04-15T07:10:45;11.30;99.90
24468;DHT22;12634;50.852;5.676;2023-04-15T07:13:12;11.30;99.90
24468;DHT22;12634;50.852;5.676;2023-04-15T07:15:39;11.40;99.90
24468;DHT22;12634;50.852;5.676;2023-04-15T07:18:06;11.80;99.90
24468;DHT22;12634;50.852;5.676;2023-04-15T07:20:34;11.80;99.90
24468;DHT22;12634;50.852;5.676;2023-04-15T07:23:01;12.20;99.90
24468;DHT22;12634;50.852;5.676;2023-04-15T07:25:28;12.70;99.90
24468;DHT22;12634;50.852;5.676;2023-04-15T07:27:57;12.70;99.90
24468;DHT22;12634;50.852;5.676;2023-04-15T07:30:24;13.00;99.90
24468;DHT22;12634;50.852;5.676;2023-04-15T07:32:51;13.70;99.90
24468;DHT22;12634;50.852;5.676;2023-04-15T07:35:19;14.20;99.90
24468;DHT22;12634;50.852;5.676;2023-04-15T07:37:47;14.80;99.90
24468;DHT22;12634;50.852;5.676;2023-04-15T07:40:14;14.90;99.90
24468;DHT22;12634;50.852;5.676;2023-04-15T07:42:41;14.40;99.90
24468;DHT22;12634;50.852;5.676;2023-04-15T07:45:11;14.20;99.90
24468;DHT22;12634;50.852;5.676;2023-04-15T07:47:38;14.00;99.90
24468;DHT22;12634;50.852;5.676;2023-04-15T07:50:08;13.90;99.90
24468;DHT22;12634;50.852;5.676;2023-04-15T07:52:35;14.30;99.90
24468;DHT22;12634;50.852;5.676;2023-04-15T07:55:05;14.80;99.90
24468;DHT22;12634;50.852;5.676;2023-04-15T07:57:33;14.80;99.90
24468;DHT22;12634;50.852;5.676;2023-04-15T08:00:00;15.40;99.90
24468;DHT22;12634;50.852;5.676;2023-04-15T08:02:29;15.70;99.90
24468;DHT22;12634;50.852;5.676;2023-04-15T08:04:57;15.60;99.90
24468;DHT22;12634;50.852;5.676;2023-04-15T08:07:24;16.00;99.90
24468;DHT22;12634;50.852;5.676;2023-04-15T08:09:52;16.30;99.90
24468;DHT22;12634;50.852;5.676;2023-04-15T08:12:19;15.00;99.90
24468;DHT22;12634;50.852;5.676;2023-04-15T08:14:46;14.70;99.90
24468;DHT22;12634;50.852;5.676;2023-04-15T08:17:13;14.80;99.90
24468;DHT22;12634;50.852;5.676;2023-04-15T08:19:42;15.50;99.90
24468;DHT22;12634;50.852;5.676;2023-04-15T08:22:09;14.90;99.90
24468;DHT22;12634;50.852;5.676;2023-04-15T08:24:37;15.20;99.90
24468;DHT22;12634;50.852;5.676;2023-04-15T08:27:04;15.50;99.90
24468;DHT22;12634;50.852;5.676;2023-04-15T08:29:32;15.40;99.90
24468;DHT22;12634;50.852;5.676;2023-04-15T08:32:00;15.30;99.90
24468;DHT22;12634;50.852;5.676;2023-04-15T08:34:28;15.00;99.90
24468;DHT22;12634;50.852;5.676;2023-04-15T08:36:57;15.00;99.90
24468;DHT22;12634;50.852;5.676;2023-04-15T08:39:24;15.20;99.90
24468;DHT22;12634;50.852;5.676;2023-04-15T08:42:00;15.30;99.90
24468;DHT22;12634;50.852;5.676;2023-04-15T08:44:29;15.80;99.90
24468;DHT22;12634;50.852;5.676;2023-04-15T08:47:00;15.50;99.90
24468;DHT22;12634;50.852;5.676;2023-04-15T08:49:28;15.70;99.90
24468;DHT22;12634;50.852;5.676;2023-04-15T08:51:58;15.80;99.90
24468;DHT22;12634;50.852;5.676;2023-04-15T08:54:26;16.20;99.90
24468;DHT22;12634;50.852;5.676;2023-04-15T08:56:54;16.70;99.90
24468;DHT22;12634;50.852;5.676;2023-04-15T08:59:23;16.50;99.90
24468;DHT22;12634;50.852;5.676;2023-04-15T09:01:50;15.90;99.90
24468;DHT22;12634;50.852;5.676;2023-04-15T09:04:18;16.00;99.90
24468;DHT22;12634;50.852;5.676;2023-04-15T09:06:46;16.60;99.90
24468;DHT22;12634;50.852;5.676;2023-04-15T09:09:14;16.40;99.90
24468;DHT22;12634;50.852;5.676;2023-04-15T09:11:41;16.50;99.90
24468;DHT22;12634;50.852;5.676;2023-04-15T09:14:08;16.80;99.90
24468;DHT22;12634;50.852;5.676;2023-04-15T09:16:55;16.70;99.90
24468;DHT22;12634;50.852;5.676;2023-04-15T09:19:23;16.40;99.90
24468;DHT22;12634;50.852;5.676;2023-04-15T09:21:51;16.60;99.90
24468;DHT22;12634;50.852;5.676;2023-04-15T09:24:21;16.00;99.90
24468;DHT22;12634;50.852;5.676;2023-04-15T09:26:51;16.30;99.90
24468;DHT22;12634;50.852;5.676;2023-04-15T09:29:23;16.70;99.90
24468;DHT22;12634;50.852;5.676;2023-04-15T09:31:51;16.70;99.90
24468;DHT22;12634;50.852;5.676;2023-04-15T09:34:19;16.80;99.90
24468;DHT22;12634;50.852;5.676;2023-04-15T09:36:53;17.20;99.90
24468;DHT22;12634;50.852;5.676;2023-04-15T09:39:22;17.00;99.90
24468;DHT22;12634;50.852;5.676;2023-04-15T09:42:13;17.40;99.90
24468;DHT22;12634;50.852;5.676;2023-04-15T09:44:41;17.50;99.90
24468;DHT22;12634;50.852;5.676;2023-04-15T09:47:08;17.70;99.90
24468;DHT22;12634;50.852;5.676;2023-04-15T09:49:36;17.30;99.90
24468;DHT22;12634;50.852;5.676;2023-04-15T09:52:03;17.50;99.90
24468;DHT22;12634;50.852;5.676;2023-04-15T09:54:36;17.10;99.90
24468;DHT22;12634;50.852;5.676;2023-04-15T09:57:05;16.80;99.90
24468;DHT22;12634;50.852;5.676;2023-04-15T09:59:32;17.30;99.90
24468;DHT22;12634;50.852;5.676;2023-04-15T10:02:03;17.00;99.90
24468;DHT22;12634;50.852;5.676;2023-04-15T10:04:32;15.90;99.90
24468;DHT22;12634;50.852;5.676;2023-04-15T10:07:03;15.40;99.90
24468;DHT22;12634;50.852;5.676;2023-04-15T10:09:31;15.00;99.90
24468;DHT22;12634;50.852;5.676;2023-04-15T10:12:01;14.90;99.90
24468;DHT22;12634;50.852;5.676;2023-04-15T10:14:32;15.30;99.90
24468;DHT22;12634;50.852;5.676;2023-04-15T10:17:00;15.40;99.90
24468;DHT22;12634;50.852;5.676;2023-04-15T10:19:31;15.50;99.90
24468;DHT22;12634;50.852;5.676;2023-04-15T10:21:59;15.80;99.90
24468;DHT22;12634;50.852;5.676;2023-04-15T10:24:27;15.30;99.90
24468;DHT22;12634;50.852;5.676;2023-04-15T10:26:54;15.20;99.90
24468;DHT22;12634;50.852;5.676;2023-04-15T10:29:24;15.90;99.90
24468;DHT22;12634;50.852;5.676;2023-04-15T10:31:53;16.10;99.90
24468;DHT22;12634;50.852;5.676;2023-04-15T10:34:22;15.20;99.90
24468;DHT22;12634;50.852;5.676;2023-04-15T10:36:50;15.40;99.90
24468;DHT22;12634;50.852;5.676;2023-04-15T10:39:39;15.80;99.90
24468;DHT22;12634;50.852;5.676;2023-04-15T10:42:08;16.00;99.90
24468;DHT22;12634;50.852;5.676;2023-04-15T10:44:37;15.70;99.90
24468;DHT22;12634;50.852;5.676;2023-04-15T10:47:09;16.20;99.90
24468;DHT22;12634;50.852;5.676;2023-04-15T10:49:45;16.00;99.90
24468;DHT22;12634;50.852;5.676;2023-04-15T10:52:14;15.70;99.90
24468;DHT22;12634;50.852;5.676;2023-04-15T10:54:42;16.20;99.90
24468;DHT22;12634;50.852;5.676;2023-04-15T10:57:15;16.60;99.90
24468;DHT22;12634;50.852;5.676;2023-04-15T11:00:08;17.30;99.90
24468;DHT22;12634;50.852;5.676;2023-04-15T11:02:41;16.80;99.90
24468;DHT22;12634;50.852;5.676;2023-04-15T11:05:09;16.60;99.90
24468;DHT22;12634;50.852;5.676;2023-04-15T11:07:45;17.50;99.90
24468;DHT22;12634;50.852;5.676;2023-04-15T11:13:25;16.80;99.90
24468;DHT22;12634;50.852;5.676;2023-04-15T11:16:00;16.40;99.90
24468;DHT22;12634;50.852;5.676;2023-04-15T11:18:29;16.30;99.90
24468;DHT22;12634;50.852;5.676;2023-04-15T11:20:59;15.90;99.90
24468;DHT22;12634;50.852;5.676;2023-04-15T11:23:29;16.50;99.90
24468;DHT22;12634;50.852;5.676;2023-04-15T11:25:57;16.90;99.90
24468;DHT22;12634;50.852;5.676;2023-04-15T11:28:26;17.10;99.90
24468;DHT22;12634;50.852;5.676;2023-04-15T11:30:54;16.80;99.90
24468;DHT22;12634;50.852;5.676;2023-04-15T11:33:23;16.70;99.90
24468;DHT22;12634;50.852;5.676;2023-04-15T11:35:52;17.40;99.90
24468;DHT22;12634;50.852;5.676;2023-04-15T11:38:20;17.90;99.90
24468;DHT22;12634;50.852;5.676;2023-04-15T11:40:49;17.60;99.90
24468;DHT22;12634;50.852;5.676;2023-04-15T11:43:18;17.60;99.90
24468;DHT22;12634;50.852;5.676;2023-04-15T11:45:51;16.80;99.90
24468;DHT22;12634;50.852;5.676;2023-04-15T11:48:19;17.10;99.90
24468;DHT22;12634;50.852;5.676;2023-04-15T11:50:53;18.00;99.90
24468;DHT22;12634;50.852;5.676;2023-04-15T11:53:20;17.80;99.90
24468;DHT22;12634;50.852;5.676;2023-04-15T11:55:50;18.30;99.90
24468;DHT22;12634;50.852;5.676;2023-04-15T11:58:19;18.70;99.90
24468;DHT22;12634;50.852;5.676;2023-04-15T12:00:48;18.90;99.90
24468;DHT22;12634;50.852;5.676;2023-04-15T12:03:21;18.30;99.90
24468;DHT22;12634;50.852;5.676;2023-04-15T12:06:20;18.80;99.90
24468;DHT22;12634;50.852;5.676;2023-04-15T12:08:59;19.80;99.90
24468;DHT22;12634;50.852;5.676;2023-04-15T12:11:47;18.50;99.60
24468;DHT22;12634;50.852;5.676;2023-04-15T12:14:19;18.90;99.90
24468;DHT22;12634;50.852;5.676;2023-04-15T12:16:49;19.40;99.90
24468;DHT22;12634;50.852;5.676;2023-04-15T12:19:19;19.10;99.90
24468;DHT22;12634;50.852;5.676;2023-04-15T12:21:49;18.30;99.90
24468;DHT22;12634;50.852;5.676;2023-04-15T12:24:20;18.30;99.70
24468;DHT22;12634;50.852;5.676;2023-04-15T12:26:49;17.90;99.00
24468;DHT22;12634;50.852;5.676;2023-04-15T12:29:18;17.40;99.30
24468;DHT22;12634;50.852;5.676;2023-04-15T12:31:47;17.90;99.90
24468;DHT22;12634;50.852;5.676;2023-04-15T12:34:15;18.30;99.90
24468;DHT22;12634;50.852;5.676;2023-04-15T12:36:42;18.70;99.90
24468;DHT22;12634;50.852;5.676;2023-04-15T12:39:12;17.10;99.90
24468;DHT22;12634;50.852;5.676;2023-04-15T12:41:39;16.60;99.90
24468;DHT22;12634;50.852;5.676;2023-04-15T12:44:06;16.40;99.90
24468;DHT22;12634;50.852;5.676;2023-04-15T12:46:34;17.30;99.90
24468;DHT22;12634;50.852;5.676;2023-04-15T12:49:01;17.70;99.90
24468;DHT22;12634;50.852;5.676;2023-04-15T12:51:29;17.70;99.90
24468;DHT22;12634;50.852;5.676;2023-04-15T12:53:57;17.90;99.90
24468;DHT22;12634;50.852;5.676;2023-04-15T12:56:26;18.60;99.90
24468;DHT22;12634;50.852;5.676;2023-04-15T12:58:53;19.10;99.90
24468;DHT22;12634;50.852;5.676;2023-04-15T13:01:20;18.90;99.00
24468;DHT22;12634;50.852;5.676;2023-04-15T13:03:47;18.30;99.90
24468;DHT22;12634;50.852;5.676;2023-04-15T13:06:15;18.10;99.90
24468;DHT22;12634;50.852;5.676;2023-04-15T13:08:43;18.70;99.90
24468;DHT22;12634;50.852;5.676;2023-04-15T13:11:10;19.00;99.90
24468;DHT22;12634;50.852;5.676;2023-04-15T13:13:39;19.30;99.40
24468;DHT22;12634;50.852;5.676;2023-04-15T13:16:06;18.80;99.90
24468;DHT22;12634;50.852;5.676;2023-04-15T13:18:34;17.90;99.90
24468;DHT22;12634;50.852;5.676;2023-04-15T13:21:01;18.20;99.90
24468;DHT22;12634;50.852;5.676;2023-04-15T13:23:28;17.30;99.90
24468;DHT22;12634;50.852;5.676;2023-04-15T13:25:56;17.40;99.90
24468;DHT22;12634;50.852;5.676;2023-04-15T13:28:23;17.30;99.90
24468;DHT22;12634;50.852;5.676;2023-04-15T13:30:51;17.70;99.90
24468;DHT22;12634;50.852;5.676;2023-04-15T13:33:18;17.90;99.90
24468;DHT22;12634;50.852;5.676;2023-04-15T13:35:46;17.70;99.90
24468;DHT22;12634;50.852;5.676;2023-04-15T13:38:13;18.30;99.90
24468;DHT22;12634;50.852;5.676;2023-04-15T13:40:40;18.60;99.90
24468;DHT22;12634;50.852;5.676;2023-04-15T13:43:07;18.60;99.90
24468;DHT22;12634;50.852;5.676;2023-04-15T13:45:35;18.50;99.90
24468;DHT22;12634;50.852;5.676;2023-04-15T13:48:04;18.70;99.90
24468;DHT22;12634;50.852;5.676;2023-04-15T13:50:31;18.30;99.50
24468;DHT22;12634;50.852;5.676;2023-04-15T13:52:58;16.60;99.90
24468;DHT22;12634;50.852;5.676;2023-04-15T13:55:25;16.30;99.90
24468;DHT22;12634;50.852;5.676;2023-04-15T13:57:52;16.20;99.90
24468;DHT22;12634;50.852;5.676;2023-04-15T14:00:20;16.10;99.90
24468;DHT22;12634;50.852;5.676;2023-04-15T14:02:47;16.70;99.90
24468;DHT22;12634;50.852;5.676;2023-04-15T14:05:16;17.50;99.90
24468;DHT22;12634;50.852;5.676;2023-04-15T14:07:43;18.30;99.90
24468;DHT22;12634;50.852;5.676;2023-04-15T14:10:10;19.50;99.50
24468;DHT22;12634;50.852;5.676;2023-04-15T14:12:37;19.70;99.90
24468;DHT22;12634;50.852;5.676;2023-04-15T14:15:05;20.10;97.40
24468;DHT22;12634;50.852;5.676;2023-04-15T14:17:32;19.90;99.80
24468;DHT22;12634;50.852;5.676;2023-04-15T14:20:00;19.30;99.90
24468;DHT22;12634;50.852;5.676;2023-04-15T14:22:30;18.20;99.90
24468;DHT22;12634;50.852;5.676;2023-04-15T14:24:57;17.40;99.90
24468;DHT22;12634;50.852;5.676;2023-04-15T14:27:25;16.50;99.90
24468;DHT22;12634;50.852;5.676;2023-04-15T14:29:52;16.20;99.90
24468;DHT22;12634;50.852;5.676;2023-04-15T14:32:19;15.90;99.90
24468;DHT22;12634;50.852;5.676;2023-04-15T14:34:46;15.90;99.90
24468;DHT22;12634;50.852;5.676;2023-04-15T14:37:13;16.60;99.90
24468;DHT22;12634;50.852;5.676;2023-04-15T14:39:42;16.10;99.90
24468;DHT22;12634;50.852;5.676;2023-04-15T14:42:09;16.10;99.90
24468;DHT22;12634;50.852;5.676;2023-04-15T14:44:36;17.10;99.90
24468;DHT22;12634;50.852;5.676;2023-04-15T14:47:03;16.40;99.90
24468;DHT22;12634;50.852;5.676;2023-04-15T14:49:31;15.70;99.90
24468;DHT22;12634;50.852;5.676;2023-04-15T14:51:58;16.80;99.90
24468;DHT22;12634;50.852;5.676;2023-04-15T14:54:26;17.70;99.90
24468;DHT22;12634;50.852;5.676;2023-04-15T14:56:54;17.10;99.90
24468;DHT22;12634;50.852;5.676;2023-04-15T14:59:21;16.30;99.90
24468;DHT22;12634;50.852;5.676;2023-04-15T15:01:49;15.50;99.90
24468;DHT22;12634;50.852;5.676;2023-04-15T15:04:16;15.20;99.90
24468;DHT22;12634;50.852;5.676;2023-04-15T15:06:43;15.30;99.90
24468;DHT22;12634;50.852;5.676;2023-04-15T15:09:10;14.80;99.90
24468;DHT22;12634;50.852;5.676;2023-04-15T15:11:37;14.90;99.90
24468;DHT22;12634;50.852;5.676;2023-04-15T15:14:06;14.70;99.90
24468;DHT22;12634;50.852;5.676;2023-04-15T15:16:33;14.60;99.90
24468;DHT22;12634;50.852;5.676;2023-04-15T15:19:00;14.30;99.90
24468;DHT22;12634;50.852;5.676;2023-04-15T15:21:27;14.20;99.90
24468;DHT22;12634;50.852;5.676;2023-04-15T15:23:54;15.10;99.90
24468;DHT22;12634;50.852;5.676;2023-04-15T15:26:22;16.00;99.90
24468;DHT22;12634;50.852;5.676;2023-04-15T15:28:49;17.40;99.90
24468;DHT22;12634;50.852;5.676;2023-04-15T15:31:17;17.80;99.90
24468;DHT22;12634;50.852;5.676;2023-04-15T15:33:45;17.70;99.90
24468;DHT22;12634;50.852;5.676;2023-04-15T15:36:12;18.00;99.80
24468;DHT22;12634;50.852;5.676;2023-04-15T15:38:39;17.80;99.90
24468;DHT22;12634;50.852;5.676;2023-04-15T15:41:06;18.10;99.50
24468;DHT22;12634;50.852;5.676;2023-04-15T15:43:34;18.30;99.90
24468;DHT22;12634;50.852;5.676;2023-04-15T15:46:02;18.00;98.70